createdAt,value
2017-11-21T00:01:02.715Z,100697
2017-11-21T00:03:31.955Z,100695
2017-11-21T00:06:01.854Z,100705
2017-11-21T00:08:30.975Z,100701
2017-11-21T00:11:00.154Z,100697
2017-11-21T00:13:29.244Z,100704
2017-11-21T00:15:58.453Z,100703
2017-11-21T00:18:29.863Z,100708
2017-11-21T00:20:59.893Z,100710
2017-11-21T00:23:28.999Z,100703
2017-11-21T00:25:58.766Z,100701
2017-11-21T00:28:27.878Z,100701
2017-11-21T00:30:56.993Z,100708
2017-11-21T00:33:26.171Z,100706
2017-11-21T00:35:56.053Z,100706
2017-11-21T00:38:25.187Z,100709
2017-11-21T00:40:54.356Z,100704
2017-11-21T00:43:23.502Z,100701
2017-11-21T00:45:52.767Z,100694
2017-11-21T00:48:22.278Z,100690
2017-11-21T00:50:51.385Z,100681
2017-11-21T00:53:20.524Z,100671
2017-11-21T00:55:49.860Z,100667
2017-11-21T00:58:19.094Z,100658
2017-11-21T01:00:48.345Z,100652
2017-11-21T01:03:17.901Z,100645
2017-11-21T01:05:47.041Z,100635
2017-11-21T01:08:17.082Z,100631
2017-11-21T01:10:46.276Z,100630
2017-11-21T01:13:16.189Z,100630
2017-11-21T01:15:45.312Z,100628
2017-11-21T01:18:14.440Z,100618
2017-11-21T01:20:43.582Z,100619
2017-11-21T01:23:13.647Z,100621
2017-11-21T01:25:43.594Z,100628
2017-11-21T01:28:13.739Z,100629
2017-11-21T01:30:42.944Z,100623
2017-11-21T01:33:12.878Z,100628
2017-11-21T01:35:42.792Z,100636
2017-11-21T01:38:11.987Z,100645
2017-11-21T01:40:41.752Z,100658
2017-11-21T01:43:10.849Z,100656
2017-11-21T01:45:40.712Z,100668
2017-11-21T01:48:09.867Z,100680
2017-11-21T01:50:38.959Z,100682
2017-11-21T01:53:08.163Z,100683
2017-11-21T01:55:37.301Z,100681
2017-11-21T01:58:06.402Z,100688
2017-11-21T02:00:35.495Z,100686
2017-11-21T02:03:06.077Z,100693
2017-11-21T02:05:36.197Z,100695
2017-11-21T02:08:05.524Z,100697
2017-11-21T02:10:34.666Z,100690
2017-11-21T02:13:03.840Z,100696
2017-11-21T02:15:33.765Z,100695
2017-11-21T02:18:03.461Z,100700
2017-11-21T02:20:32.613Z,100700
2017-11-21T02:23:01.793Z,100693
2017-11-21T02:25:31.055Z,100691
2017-11-21T02:28:00.260Z,100695
2017-11-21T02:30:29.402Z,100698
2017-11-21T02:32:59.608Z,100701
2017-11-21T02:35:28.733Z,100698
2017-11-21T02:37:57.913Z,100692
2017-11-21T02:40:27.161Z,100700
2017-11-21T02:42:56.300Z,100701
2017-11-21T02:45:25.482Z,100695
2017-11-21T02:47:54.854Z,100684
2017-11-21T02:50:24.045Z,100677
2017-11-21T02:52:53.303Z,100671
2017-11-21T02:55:22.644Z,100680
2017-11-21T02:57:51.941Z,100680
2017-11-21T03:00:21.240Z,100678
2017-11-21T03:02:50.745Z,100678
2017-11-21T03:05:19.930Z,100681
2017-11-21T03:07:49.852Z,100682
2017-11-21T03:10:19.161Z,100675
2017-11-21T03:12:49.168Z,100671
2017-11-21T03:15:18.362Z,100671
2017-11-21T03:17:47.602Z,100671
2017-11-21T03:20:34.363Z,100667
2017-11-21T03:23:23.111Z,100666
2017-11-21T03:26:22.119Z,100660
2017-11-21T03:28:51.624Z,100661
2017-11-21T03:31:20.747Z,100666
2017-11-21T03:33:50.734Z,100667
2017-11-21T03:36:19.967Z,100672
2017-11-21T03:38:50.069Z,100683
2017-11-21T03:41:19.384Z,100680
2017-11-21T03:43:49.367Z,100685
2017-11-21T03:46:19.327Z,100678
2017-11-21T03:48:48.511Z,100671
2017-11-21T03:51:17.701Z,100667
2017-11-21T03:53:46.780Z,100665
2017-11-21T03:56:15.901Z,100668
2017-11-21T03:58:45.497Z,100671
2017-11-21T04:01:14.684Z,100671
2017-11-21T04:03:43.804Z,100672
2017-11-21T04:06:13.993Z,100672
2017-11-21T04:08:44.129Z,100669
2017-11-21T04:11:13.327Z,100673
2017-11-21T04:13:42.532Z,100680
2017-11-21T04:16:11.750Z,100676
2017-11-21T04:18:40.920Z,100682
2017-11-21T04:21:10.689Z,100675
2017-11-21T04:23:39.935Z,100668
2017-11-21T04:26:09.171Z,100666
2017-11-21T04:28:39.824Z,100663
2017-11-21T04:31:08.987Z,100658
2017-11-21T04:33:38.157Z,100661
2017-11-21T04:36:07.298Z,100662
2017-11-21T04:38:37.212Z,100659
2017-11-21T04:41:06.449Z,100666
2017-11-21T04:43:36.380Z,100662
2017-11-21T04:46:06.296Z,100659
2017-11-21T04:48:35.835Z,100652
2017-11-21T04:51:09.508Z,100647
2017-11-21T04:53:38.651Z,100638
2017-11-21T04:56:07.805Z,100644
2017-11-21T04:58:37.456Z,100628
2017-11-21T05:01:06.556Z,100639
2017-11-21T05:03:35.714Z,100640
2017-11-21T05:06:05.463Z,100642
2017-11-21T05:08:34.903Z,100642
2017-11-21T05:11:04.070Z,100649
2017-11-21T05:13:33.463Z,100646
2017-11-21T05:16:03.379Z,100654
2017-11-21T05:18:33.317Z,100653
2017-11-21T05:21:03.075Z,100653
2017-11-21T05:23:33.161Z,100660
2017-11-21T05:26:03.075Z,100660
2017-11-21T05:28:32.252Z,100663
2017-11-21T05:31:01.438Z,100653
2017-11-21T05:33:41.398Z,100653
2017-11-21T05:36:10.720Z,100648
2017-11-21T05:38:39.874Z,100650
2017-11-21T05:41:09.092Z,100646
2017-11-21T05:43:38.205Z,100642
2017-11-21T05:46:08.240Z,100645
2017-11-21T05:48:37.485Z,100642
2017-11-21T05:51:06.642Z,100650
2017-11-21T05:53:35.814Z,100652
2017-11-21T05:56:05.389Z,100658
2017-11-21T05:58:34.478Z,100661
2017-11-21T06:01:03.700Z,100664
2017-11-21T06:03:33.674Z,100666
2017-11-21T06:06:02.799Z,100671
2017-11-21T06:08:31.904Z,100671
2017-11-21T06:11:02.738Z,100664
2017-11-21T06:13:33.224Z,100664
2017-11-21T06:16:02.390Z,100673
2017-11-21T06:18:31.676Z,100668
2017-11-21T06:21:01.615Z,100671
2017-11-21T06:23:31.762Z,100674
2017-11-21T06:26:01.726Z,100673
2017-11-21T06:28:30.831Z,100676
2017-11-21T06:31:00.792Z,100678
2017-11-21T06:33:29.934Z,100678
2017-11-21T06:35:59.897Z,100679
2017-11-21T06:38:29.052Z,100680
2017-11-21T06:40:59.603Z,100685
2017-11-21T06:43:29.506Z,100690
2017-11-21T06:45:58.670Z,100687
2017-11-21T06:48:28.769Z,100685
2017-11-21T06:50:57.864Z,100693
2017-11-21T06:53:27.844Z,100684
2017-11-21T06:55:57.106Z,100679
2017-11-21T06:58:27.153Z,100684
2017-11-21T07:00:56.252Z,100693
2017-11-21T07:03:25.551Z,100698
2017-11-21T07:05:54.662Z,100699
2017-11-21T07:08:23.914Z,100709
2017-11-21T07:10:53.210Z,100711
2017-11-21T07:13:22.621Z,100706
2017-11-21T07:15:52.809Z,100716
2017-11-21T07:18:22.477Z,100719
2017-11-21T07:20:51.761Z,100722
2017-11-21T07:23:20.913Z,100720
2017-11-21T07:25:50.076Z,100713
2017-11-21T07:28:20.195Z,100716
2017-11-21T07:30:50.101Z,100719
2017-11-21T07:33:19.919Z,100724
2017-11-21T07:35:49.110Z,100722
2017-11-21T07:38:18.410Z,100711
2017-11-21T07:40:48.560Z,100707
2017-11-21T07:43:18.753Z,100717
2017-11-21T07:45:48.172Z,100719
2017-11-21T07:48:17.922Z,100718
2017-11-21T07:50:47.163Z,100718
2017-11-21T07:53:16.774Z,100719
2017-11-21T07:55:46.694Z,100721
2017-11-21T07:58:15.869Z,100724
2017-11-21T08:00:44.986Z,100721
2017-11-21T08:03:14.856Z,100723
2017-11-21T08:05:44.003Z,100724
2017-11-21T08:08:13.093Z,100728
2017-11-21T08:10:42.897Z,100721
2017-11-21T08:13:12.063Z,100720
2017-11-21T08:15:41.208Z,100725
2017-11-21T08:18:11.102Z,100723
2017-11-21T08:20:40.256Z,100732
2017-11-21T08:23:09.465Z,100735
2017-11-21T08:25:38.664Z,100731
2017-11-21T08:28:07.873Z,100741
2017-11-21T08:30:37.896Z,100743
2017-11-21T08:33:08.226Z,100751
2017-11-21T08:35:37.349Z,100751
2017-11-21T08:38:07.264Z,100751
2017-11-21T08:40:36.483Z,100751
2017-11-21T08:43:05.658Z,100738
2017-11-21T08:45:34.801Z,100745
2017-11-21T08:48:05.591Z,100751
2017-11-21T08:50:35.659Z,100751
2017-11-21T08:53:05.574Z,100752
2017-11-21T08:55:34.799Z,100755
2017-11-21T08:58:03.910Z,100757
2017-11-21T09:00:33.146Z,100751
2017-11-21T09:03:02.809Z,100756
2017-11-21T09:05:31.906Z,100749
2017-11-21T09:08:01.802Z,100750
2017-11-21T09:10:31.817Z,100748
2017-11-21T09:13:00.939Z,100750
2017-11-21T09:15:30.060Z,100744
2017-11-21T09:17:59.605Z,100747
2017-11-21T09:20:29.574Z,100754
2017-11-21T09:22:58.756Z,100749
2017-11-21T09:25:28.380Z,100766
2017-11-21T09:27:57.480Z,100770
2017-11-21T09:30:26.636Z,100775
2017-11-21T09:32:56.645Z,100772
2017-11-21T09:35:25.740Z,100771
2017-11-21T09:37:54.934Z,100772
2017-11-21T09:40:26.392Z,100771
2017-11-21T09:42:56.400Z,100772
2017-11-21T09:45:25.603Z,100780
2017-11-21T09:47:54.856Z,100784
2017-11-21T09:50:24.030Z,100779
2017-11-21T09:52:53.151Z,100792
2017-11-21T09:55:22.377Z,100795
2017-11-21T09:57:51.719Z,100798
2017-11-21T10:00:20.994Z,100801
2017-11-21T10:02:51.044Z,100797
2017-11-21T10:05:20.199Z,100793
2017-11-21T10:07:49.548Z,100784
2017-11-21T10:10:19.594Z,100785
2017-11-21T10:12:48.778Z,100775
2017-11-21T10:15:18.914Z,100777
2017-11-21T10:17:48.195Z,100777
2017-11-21T10:20:17.349Z,100773
2017-11-21T10:22:47.247Z,100764
2017-11-21T10:25:16.598Z,100762
2017-11-21T10:27:45.744Z,100752
2017-11-21T10:30:14.901Z,100758
2017-11-21T10:32:44.092Z,100761
2017-11-21T10:35:13.242Z,100749
2017-11-21T10:37:42.385Z,100743
2017-11-21T10:40:11.911Z,100733
2017-11-21T10:42:42.388Z,100734
2017-11-21T10:45:11.532Z,100727
2017-11-21T10:47:40.694Z,100727
2017-11-21T10:50:09.825Z,100718
2017-11-21T10:52:39.745Z,100707
2017-11-21T10:55:09.856Z,100702
2017-11-21T10:57:38.994Z,100704
2017-11-21T11:00:08.916Z,100699
2017-11-21T11:02:39.230Z,100708
2017-11-21T11:05:08.472Z,100718
2017-11-21T11:07:38.482Z,100711
2017-11-21T11:10:07.708Z,100706
2017-11-21T11:12:36.875Z,100698
2017-11-21T11:15:06.068Z,100699
2017-11-21T11:17:35.718Z,100704
2017-11-21T11:20:04.820Z,100713
2017-11-21T11:22:33.991Z,100710
2017-11-21T11:25:03.196Z,100709
2017-11-21T11:27:32.343Z,100697
2017-11-21T11:30:01.466Z,100705
2017-11-21T11:32:30.712Z,100701
2017-11-21T11:35:07.878Z,100697
2017-11-21T11:37:37.602Z,100702
2017-11-21T11:40:06.780Z,100702
2017-11-21T11:42:35.928Z,100700
2017-11-21T11:45:05.108Z,100704
2017-11-21T11:47:34.208Z,100699
2017-11-21T11:50:03.456Z,100701
2017-11-21T11:52:32.700Z,100698
2017-11-21T11:55:01.869Z,100701
2017-11-21T11:57:31.063Z,100703
2017-11-21T12:00:00.712Z,100702
2017-11-21T12:02:29.920Z,100696
2017-11-21T12:04:59.174Z,100690
2017-11-21T12:07:28.349Z,100685
2017-11-21T12:09:57.704Z,100685
2017-11-21T12:12:26.898Z,100686
2017-11-21T12:14:57.633Z,100687
2017-11-21T12:17:27.623Z,100689
2017-11-21T12:19:56.855Z,100686
2017-11-21T12:22:26.361Z,100691
2017-11-21T12:24:55.726Z,100682
2017-11-21T12:27:25.897Z,100673
2017-11-21T12:29:56.159Z,100672
2017-11-21T12:32:25.358Z,100668
2017-11-21T12:34:54.549Z,100661
2017-11-21T12:37:23.971Z,100662
2017-11-21T12:39:53.456Z,100658
2017-11-21T12:42:23.521Z,100654
2017-11-21T12:44:53.127Z,100657
2017-11-21T12:47:22.424Z,100651
2017-11-21T12:49:52.013Z,100654
2017-11-21T12:52:21.603Z,100654
2017-11-21T12:54:51.032Z,100647
2017-11-21T12:57:21.109Z,100646
2017-11-21T12:59:50.609Z,100641
2017-11-21T13:02:21.023Z,100642
2017-11-21T13:04:51.305Z,100640
2017-11-21T13:07:21.097Z,100631
2017-11-21T13:09:50.758Z,100633
2017-11-21T13:12:20.243Z,100624
2017-11-21T13:14:49.886Z,100625
2017-11-21T13:17:20.262Z,100626
2017-11-21T13:19:49.587Z,100627
2017-11-21T13:22:20.809Z,100626
2017-11-21T13:24:50.111Z,100625
2017-11-21T13:27:19.493Z,100625
2017-11-21T13:29:49.503Z,100627
2017-11-21T13:32:18.746Z,100627
2017-11-21T13:34:48.795Z,100628
2017-11-21T13:37:18.219Z,100627
2017-11-21T13:39:47.420Z,100629
2017-11-21T13:42:17.521Z,100631
2017-11-21T13:44:47.714Z,100626
2017-11-21T13:47:16.836Z,100626
2017-11-21T13:49:46.842Z,100626
2017-11-21T13:52:16.102Z,100623
2017-11-21T13:54:45.260Z,100622
2017-11-21T13:57:14.392Z,100622
2017-11-21T13:59:43.591Z,100619
2017-11-21T14:02:12.730Z,100619
2017-11-21T14:04:41.903Z,100618
2017-11-21T14:07:11.209Z,100621
2017-11-21T14:09:40.356Z,100612
2017-11-21T14:12:09.534Z,100614
2017-11-21T14:14:38.745Z,100611
2017-11-21T14:17:07.910Z,100610
2017-11-21T14:19:37.054Z,100613
2017-11-21T14:22:07.816Z,100616
2017-11-21T14:24:36.992Z,100616
2017-11-21T14:27:06.988Z,100611
2017-11-21T14:29:37.461Z,100608
2017-11-21T14:32:07.391Z,100603
2017-11-21T14:34:37.398Z,100603
2017-11-21T14:37:06.566Z,100597
2017-11-21T14:39:35.698Z,100592
2017-11-21T14:42:04.913Z,100587
2017-11-21T14:44:34.832Z,100590
2017-11-21T14:47:04.033Z,100583
2017-11-21T14:49:33.277Z,100580
2017-11-21T14:52:02.533Z,100580
2017-11-21T14:54:31.656Z,100580
2017-11-21T14:57:00.868Z,100580
2017-11-21T14:59:30.060Z,100580
2017-11-21T15:01:59.955Z,100579
2017-11-21T15:04:29.850Z,100570
2017-11-21T15:06:59.184Z,100567
2017-11-21T15:09:28.354Z,100575
2017-11-21T15:11:57.546Z,100570
2017-11-21T15:14:27.563Z,100566
2017-11-21T15:16:57.624Z,100567
2017-11-21T15:19:27.429Z,100565
2017-11-21T15:21:57.569Z,100562
2017-11-21T15:24:26.809Z,100557
2017-11-21T15:26:56.136Z,100554
2017-11-21T15:29:25.398Z,100562
2017-11-21T15:31:54.573Z,100556
2017-11-21T15:34:23.960Z,100561
2017-11-21T15:36:53.563Z,100563
2017-11-21T15:39:22.741Z,100563
2017-11-21T15:41:52.174Z,100564
2017-11-21T15:44:21.471Z,100567
2017-11-21T15:46:50.756Z,100560
2017-11-21T15:49:20.159Z,100562
2017-11-21T15:51:49.484Z,100557
2017-11-21T15:54:18.721Z,100559
2017-11-21T15:56:48.087Z,100565
2017-11-21T15:59:18.325Z,100571
2017-11-21T16:01:47.794Z,100574
2017-11-21T16:04:17.024Z,100579
2017-11-21T16:06:46.234Z,100575
2017-11-21T16:09:16.911Z,100580
2017-11-21T16:11:46.404Z,100572
2017-11-21T16:14:15.692Z,100570
2017-11-21T16:16:44.841Z,100568
2017-11-21T16:19:13.988Z,100569
2017-11-21T16:21:44.261Z,100566
2017-11-21T16:24:13.507Z,100562
2017-11-21T16:26:43.809Z,100551
2017-11-21T16:29:13.046Z,100554
2017-11-21T16:31:42.181Z,100551
2017-11-21T16:34:11.589Z,100546
2017-11-21T16:36:40.743Z,100547
2017-11-21T16:39:10.768Z,100547
2017-11-21T16:41:40.745Z,100540
2017-11-21T16:44:12.936Z,100534
2017-11-21T16:46:42.318Z,100533
2017-11-21T16:49:11.454Z,100541
2017-11-21T16:51:40.692Z,100549
2017-11-21T16:54:10.534Z,100549
2017-11-21T16:56:39.930Z,100554
2017-11-21T16:59:09.936Z,100553
2017-11-21T17:01:39.301Z,100558
2017-11-21T17:04:09.687Z,100569
2017-11-21T17:06:38.860Z,100568
2017-11-21T17:09:08.969Z,100570
2017-11-21T17:11:38.133Z,100570
2017-11-21T17:14:07.319Z,100572
2017-11-21T17:16:38.030Z,100572
2017-11-21T17:19:07.239Z,100563
2017-11-21T17:21:36.410Z,100572
2017-11-21T17:24:05.656Z,100572
2017-11-21T17:26:34.948Z,100567
2017-11-21T17:29:04.213Z,100566
2017-11-21T17:31:34.183Z,100557
2017-11-21T17:34:03.553Z,100561
2017-11-21T17:36:32.957Z,100568
2017-11-21T17:39:02.288Z,100562
2017-11-21T17:41:31.552Z,100557
2017-11-21T17:44:00.740Z,100554
2017-11-21T17:46:30.981Z,100553
2017-11-21T17:49:00.206Z,100553
2017-11-21T17:51:29.581Z,100556
2017-11-21T17:53:59.746Z,100552
2017-11-21T17:56:29.263Z,100559
2017-11-21T17:58:58.708Z,100552
2017-11-21T18:01:29.121Z,100549
2017-11-21T18:03:58.320Z,100535
2017-11-21T18:06:27.730Z,100530
2017-11-21T18:08:57.985Z,100516
2017-11-21T18:11:27.323Z,100512
2017-11-21T18:13:57.023Z,100511
2017-11-21T18:16:27.156Z,100501
2017-11-21T18:18:56.420Z,100510
2017-11-21T18:21:25.757Z,100512
2017-11-21T18:23:55.318Z,100507
2017-11-21T18:26:24.737Z,100505
2017-11-21T18:28:55.751Z,100504
2017-11-21T18:31:25.305Z,100501
2017-11-21T18:33:55.787Z,100505
2017-11-21T18:36:27.315Z,100496
2017-11-21T18:38:56.682Z,100493
2017-11-21T18:41:26.703Z,100498
2017-11-21T18:43:56.947Z,100492
2017-11-21T18:46:26.423Z,100491
2017-11-21T18:48:56.503Z,100498
2017-11-21T18:51:26.078Z,100494
2017-11-21T18:53:55.314Z,100497
2017-11-21T18:56:24.765Z,100499
2017-11-21T18:58:54.900Z,100503
2017-11-21T19:01:24.995Z,100492
2017-11-21T19:03:55.407Z,100492
2017-11-21T19:06:26.757Z,100488
2017-11-21T19:08:56.162Z,100490
2017-11-21T19:11:25.567Z,100487
2017-11-21T19:13:56.488Z,100482
2017-11-21T19:16:25.584Z,100481
2017-11-21T19:18:55.826Z,100472
2017-11-21T19:21:25.263Z,100466
2017-11-21T19:23:54.726Z,100455
2017-11-21T19:26:24.772Z,100447
2017-11-21T19:28:55.400Z,100440
2017-11-21T19:31:24.689Z,100435
2017-11-21T19:33:55.698Z,100433
2017-11-21T19:36:25.823Z,100428
2017-11-21T19:38:56.018Z,100430
2017-11-21T19:41:25.417Z,100432
2017-11-21T19:43:55.342Z,100439
2017-11-21T19:46:24.688Z,100443
2017-11-21T19:48:54.260Z,100449
2017-11-21T19:51:23.727Z,100448
2017-11-21T19:53:54.097Z,100441
2017-11-21T19:56:23.441Z,100441
2017-11-21T19:58:52.939Z,100443
2017-11-21T20:01:22.224Z,100442
2017-11-21T20:03:52.425Z,100420
2017-11-21T20:06:23.362Z,100423
2017-11-21T20:08:52.488Z,100418
2017-11-21T20:11:22.690Z,100415
2017-11-21T20:13:52.214Z,100405
2017-11-21T20:16:21.385Z,100401
2017-11-21T20:18:51.452Z,100405
2017-11-21T20:21:21.217Z,100405
2017-11-21T20:23:50.446Z,100394
2017-11-21T20:26:20.555Z,100387
2017-11-21T20:28:51.811Z,100384
2017-11-21T20:31:21.362Z,100380
2017-11-21T20:33:50.651Z,100372
2017-11-21T20:36:21.246Z,100373
2017-11-21T20:38:50.731Z,100372
2017-11-21T20:41:20.118Z,100377
2017-11-21T20:43:49.844Z,100379
2017-11-21T20:46:20.391Z,100377
2017-11-21T20:48:49.775Z,100377
2017-11-21T20:51:21.322Z,100369
2017-11-21T20:53:50.577Z,100366
2017-11-21T20:56:20.029Z,100361
2017-11-21T20:58:50.874Z,100363
2017-11-21T21:01:20.347Z,100361
2017-11-21T21:03:49.827Z,100355
2017-11-21T21:06:20.034Z,100357
2017-11-21T21:08:50.937Z,100355
2017-11-21T21:11:20.881Z,100354
2017-11-21T21:13:50.907Z,100349
2017-11-21T21:16:20.275Z,100348
2017-11-21T21:18:50.319Z,100330
2017-11-21T21:21:19.540Z,100331
2017-11-21T21:23:48.741Z,100320
2017-11-21T21:26:19.169Z,100318
2017-11-21T21:28:49.542Z,100315
2017-11-21T21:31:19.856Z,100309
2017-11-21T21:33:50.424Z,100306
2017-11-21T21:36:19.792Z,100302
2017-11-21T21:38:49.022Z,100309
2017-11-21T21:41:18.246Z,100300
2017-11-21T21:43:47.339Z,100295
2017-11-21T21:46:16.499Z,100287
2017-11-21T21:48:46.179Z,100281
2017-11-21T21:51:15.333Z,100272
2017-11-21T21:53:44.471Z,100271
2017-11-21T21:56:13.632Z,100274
2017-11-21T21:58:42.789Z,100266
2017-11-21T22:01:12.010Z,100264
2017-11-21T22:03:41.680Z,100259
2017-11-21T22:06:10.810Z,100253
2017-11-21T22:08:39.950Z,100249
2017-11-21T22:11:09.966Z,100246
2017-11-21T22:13:39.133Z,100234
2017-11-21T22:16:09.376Z,100227
2017-11-21T22:18:40.290Z,100225
2017-11-21T22:21:10.301Z,100211
2017-11-21T22:23:40.965Z,100203
2017-11-21T22:26:10.911Z,100202
2017-11-21T22:28:40.829Z,100205
2017-11-21T22:31:09.964Z,100208
2017-11-21T22:33:39.898Z,100202
2017-11-21T22:36:09.047Z,100207
2017-11-21T22:38:38.422Z,100212
2017-11-21T22:41:08.403Z,100210
2017-11-21T22:43:37.635Z,100206
2017-11-21T22:46:06.800Z,100201
2017-11-21T22:48:36.638Z,100202
2017-11-21T22:51:06.474Z,100195
2017-11-21T22:53:37.499Z,100191
2017-11-21T22:56:08.493Z,100186
2017-11-21T22:58:38.818Z,100178
2017-11-21T23:01:09.047Z,100176
2017-11-21T23:03:38.228Z,100167
2017-11-21T23:06:07.435Z,100156
2017-11-21T23:08:36.637Z,100157
2017-11-21T23:11:05.825Z,100150
2017-11-21T23:13:36.026Z,100145
2017-11-21T23:16:06.548Z,100141
2017-11-21T23:18:35.710Z,100140
2017-11-21T23:21:06.468Z,100139
2017-11-21T23:23:35.758Z,100139
2017-11-21T23:26:05.154Z,100135
2017-11-21T23:28:35.105Z,100139
2017-11-21T23:31:04.988Z,100138
2017-11-21T23:33:34.148Z,100136
2017-11-21T23:36:04.378Z,100130
2017-11-21T23:38:33.539Z,100136
2017-11-21T23:41:02.676Z,100137
2017-11-21T23:43:33.490Z,100124
2017-11-21T23:46:02.662Z,100123
2017-11-21T23:48:31.781Z,100132
2017-11-21T23:51:01.168Z,100122
2017-11-21T23:53:30.267Z,100124
2017-11-21T23:56:00.191Z,100112
2017-11-21T23:58:29.356Z,100116
